sensor_id;sensor_type;location;lat;lon;timestamp;temperature;humidity
20700;DHT22;10511;51.232;9.420;2024-01-15T00:01:21;-0.40;99.90
20700;DHT22;10511;51.232;9.420;2024-01-15T00:03:53;-0.50;99.90
20700;DHT22;10511;51.232;9.420;2024-01-15T00:06:29;-0.50;99.90
20700;DHT22;10511;51.232;9.420;2024-01-15T00:08:58;-0.50;99.90
20700;DHT22;10511;51.232;9.420;2024-01-15T00:11:25;-0.50;99.90
20700;DHT22;10511;51.232;9.420;2024-01-15T00:13:52;-0.40;99.90
20700;DHT22;10511;51.232;9.420;2024-01-15T00:16:20;-0.50;99.90
20700;DHT22;10511;51.232;9.420;2024-01-15T00:18:47;-0.50;99.90
20700;DHT22;10511;51.232;9.420;2024-01-15T00:21:15;-0.50;99.90
20700;DHT22;10511;51.232;9.420;2024-01-15T00:23:43;-0.40;99.90
20700;DHT22;10511;51.232;9.420;2024-01-15T00:26:10;-0.40;99.90
20700;DHT22;10511;51.232;9.420;2024-01-15T00:28:38;-0.40;99.90
20700;DHT22;10511;51.232;9.420;2024-01-15T00:31:10;-0.40;99.90
20700;DHT22;10511;51.232;9.420;2024-01-15T00:33:40;-0.30;99.90
20700;DHT22;10511;51.232;9.420;2024-01-15T00:36:07;-0.30;99.90
20700;DHT22;10511;51.232;9.420;2024-01-15T00:38:39;-0.20;99.90
20700;DHT22;10511;51.232;9.420;2024-01-15T00:41:06;-0.10;99.90
20700;DHT22;10511;51.232;9.420;2024-01-15T00:43:33;-0.10;99.90
20700;DHT22;10511;51.232;9.420;2024-01-15T00:46:01;-0.10;99.90
20700;DHT22;10511;51.232;9.420;2024-01-15T00:48:28;-0.10;99.90
20700;DHT22;10511;51.232;9.420;2024-01-15T00:50:55;-0.10;99.90
20700;DHT22;10511;51.232;9.420;2024-01-15T00:53:23;-0.10;99.90
20700;DHT22;10511;51.232;9.420;2024-01-15T00:55:51;-0.10;99.90
20700;DHT22;10511;51.232;9.420;2024-01-15T00:58:19;-0.10;99.90
20700;DHT22;10511;51.232;9.420;2024-01-15T01:00:46;-0.10;99.90
20700;DHT22;10511;51.232;9.420;2024-01-15T01:03:12;-0.20;99.90
20700;DHT22;10511;51.232;9.420;2024-01-15T01:05:39;-0.20;99.90
20700;DHT22;10511;51.232;9.420;2024-01-15T01:08:06;-0.20;99.90
20700;DHT22;10511;51.232;9.420;2024-01-15T01:10:33;-0.30;99.90
20700;DHT22;10511;51.232;9.420;2024-01-15T01:13:02;-0.30;99.90
20700;DHT22;10511;51.232;9.420;2024-01-15T01:15:29;-0.30;99.90
20700;DHT22;10511;51.232;9.420;2024-01-15T01:17:56;-0.40;99.90
20700;DHT22;10511;51.232;9.420;2024-01-15T01:20:22;-0.40;99.90
20700;DHT22;10511;51.232;9.420;2024-01-15T01:22:49;-0.40;99.90
20700;DHT22;10511;51.232;9.420;2024-01-15T01:25:16;-0.40;99.90
20700;DHT22;10511;51.232;9.420;2024-01-15T01:27:43;-0.40;99.90
20700;DHT22;10511;51.232;9.420;2024-01-15T01:30:11;-0.40;99.90
20700;DHT22;10511;51.232;9.420;2024-01-15T01:32:38;-0.40;99.90
20700;DHT22;10511;51.232;9.420;2024-01-15T01:35:05;-0.40;99.90
20700;DHT22;10511;51.232;9.420;2024-01-15T01:37:32;-0.30;99.90
20700;DHT22;10511;51.232;9.420;2024-01-15T01:40:00;-0.20;99.90
20700;DHT22;10511;51.232;9.420;2024-01-15T01:42:27;-0.30;99.90
20700;DHT22;10511;51.232;9.420;2024-01-15T01:44:54;-0.30;99.90
20700;DHT22;10511;51.232;9.420;2024-01-15T01:47:22;-0.30;99.90
20700;DHT22;10511;51.232;9.420;2024-01-15T01:49:52;-0.30;99.90
20700;DHT22;10511;51.232;9.420;2024-01-15T01:52:18;-0.30;99.90
20700;DHT22;10511;51.232;9.420;2024-01-15T01:54:45;-0.30;99.90
20700;DHT22;10511;51.232;9.420;2024-01-15T01:57:12;-0.30;99.90
20700;DHT22;10511;51.232;9.420;2024-01-15T01:59:40;-0.30;99.90
20700;DHT22;10511;51.232;9.420;2024-01-15T02:02:07;-0.30;99.90
20700;DHT22;10511;51.232;9.420;2024-01-15T02:04:36;-0.40;99.90
20700;DHT22;10511;51.232;9.420;2024-01-15T02:07:03;-0.40;99.90
20700;DHT22;10511;51.232;9.420;2024-01-15T02:09:30;-0.50;99.90
20700;DHT22;10511;51.232;9.420;2024-01-15T02:11:57;-0.40;99.90
20700;DHT22;10511;51.232;9.420;2024-01-15T02:14:24;-0.40;99.90
20700;DHT22;10511;51.232;9.420;2024-01-15T02:16:51;-0.40;99.90
20700;DHT22;10511;51.232;9.420;2024-01-15T02:19:18;-0.40;99.90
20700;DHT22;10511;51.232;9.420;2024-01-15T02:21:46;-0.50;99.90
20700;DHT22;10511;51.232;9.420;2024-01-15T02:24:15;-0.40;99.90
20700;DHT22;10511;51.232;9.420;2024-01-15T02:26:42;-0.40;99.90
20700;DHT22;10511;51.232;9.420;2024-01-15T02:29:09;-0.40;99.90
20700;DHT22;10511;51.232;9.420;2024-01-15T02:31:37;-0.40;99.90
20700;DHT22;10511;51.232;9.420;2024-01-15T02:34:04;-0.30;99.90
20700;DHT22;10511;51.232;9.420;2024-01-15T02:36:30;-0.30;99.90
20700;DHT22;10511;51.232;9.420;2024-01-15T02:38:57;-0.30;99.90
20700;DHT22;10511;51.232;9.420;2024-01-15T02:41:26;-0.30;99.90
20700;DHT22;10511;51.232;9.420;2024-01-15T02:43:53;-0.30;99.90
20700;DHT22;10511;51.232;9.420;2024-01-15T02:46:20;-0.30;99.90
20700;DHT22;10511;51.232;9.420;2024-01-15T02:48:47;-0.40;99.90
20700;DHT22;10511;51.232;9.420;2024-01-15T02:51:13;-0.40;99.90
20700;DHT22;10511;51.232;9.420;2024-01-15T02:53:40;-0.30;99.90
20700;DHT22;10511;51.232;9.420;2024-01-15T02:56:07;-0.20;99.90
20700;DHT22;10511;51.232;9.420;2024-01-15T02:58:35;-0.20;99.90
20700;DHT22;10511;51.232;9.420;2024-01-15T03:01:02;-0.20;99.90
20700;DHT22;10511;51.232;9.420;2024-01-15T03:03:29;-0.20;99.90
20700;DHT22;10511;51.232;9.420;2024-01-15T03:05:56;-0.10;99.90
20700;DHT22;10511;51.232;9.420;2024-01-15T03:08:23;-0.20;99.90
20700;DHT22;10511;51.232;9.420;2024-01-15T03:10:50;-0.10;99.90
20700;DHT22;10511;51.232;9.420;2024-01-15T03:13:17;-0.10;99.90
20700;DHT22;10511;51.232;9.420;2024-01-15T03:15:46;-0.10;99.90
20700;DHT22;10511;51.232;9.420;2024-01-15T03:18:13;-0.10;99.90
20700;DHT22;10511;51.232;9.420;2024-01-15T03:20:39;-0.10;99.90
20700;DHT22;10511;51.232;9.420;2024-01-15T03:23:06;-0.10;99.90
20700;DHT22;10511;51.232;9.420;2024-01-15T03:25:33;-0.10;99.90
20700;DHT22;10511;51.232;9.420;2024-01-15T03:28:00;-0.10;99.90
20700;DHT22;10511;51.232;9.420;2024-01-15T03:30:27;-0.10;99.90
20700;DHT22;10511;51.232;9.420;2024-01-15T03:32:55;-0.20;99.90
20700;DHT22;10511;51.232;9.420;2024-01-15T03:35:22;-0.20;99.90
20700;DHT22;10511;51.232;9.420;2024-01-15T03:37:48;-0.30;99.90
20700;DHT22;10511;51.232;9.420;2024-01-15T03:40:15;-0.40;99.90
20700;DHT22;10511;51.232;9.420;2024-01-15T03:42:42;-0.40;99.90
20700;DHT22;10511;51.232;9.420;2024-01-15T03:45:09;-0.60;99.90
20700;DHT22;10511;51.232;9.420;2024-01-15T03:47:36;-0.60;99.90
20700;DHT22;10511;51.232;9.420;2024-01-15T03:50:05;-0.60;99.90
20700;DHT22;10511;51.232;9.420;2024-01-15T03:52:32;-0.60;99.90
20700;DHT22;10511;51.232;9.420;2024-01-15T03:54:59;-0.70;99.90
20700;DHT22;10511;51.232;9.420;2024-01-15T03:57:25;-0.70;99.90
20700;DHT22;10511;51.232;9.420;2024-01-15T03:59:52;-0.70;99.90
20700;DHT22;10511;51.232;9.420;2024-01-15T04:02:19;-0.70;99.90
20700;DHT22;10511;51.232;9.420;2024-01-15T04:04:46;-0.60;99.90
20700;DHT22;10511;51.232;9.420;2024-01-15T04:07:14;-0.50;99.90
20700;DHT22;10511;51.232;9.420;2024-01-15T04:09:41;-0.60;99.90
20700;DHT22;10511;51.232;9.420;2024-01-15T04:12:08;-0.50;99.90
20700;DHT22;10511;51.232;9.420;2024-01-15T04:14:35;-0.40;99.90
20700;DHT22;10511;51.232;9.420;2024-01-15T04:17:01;-0.40;99.90
20700;DHT22;10511;51.232;9.420;2024-01-15T04:19:28;-0.40;99.90
20700;DHT22;10511;51.232;9.420;2024-01-15T04:21:55;-0.40;99.90
20700;DHT22;10511;51.232;9.420;2024-01-15T04:24:26;-0.30;99.90
20700;DHT22;10511;51.232;9.420;2024-01-15T04:27:05;-0.30;99.90
20700;DHT22;10511;51.232;9.420;2024-01-15T04:29:32;-0.30;99.90
20700;DHT22;10511;51.232;9.420;2024-01-15T04:31:58;-0.30;99.90
20700;DHT22;10511;51.232;9.420;2024-01-15T04:34:25;-0.30;99.90
20700;DHT22;10511;51.232;9.420;2024-01-15T04:36:52;-0.40;99.90
20700;DHT22;10511;51.232;9.420;2024-01-15T04:39:19;-0.30;99.90
20700;DHT22;10511;51.232;9.420;2024-01-15T04:41:47;-0.30;99.90
20700;DHT22;10511;51.232;9.420;2024-01-15T04:44:15;-0.30;99.90
20700;DHT22;10511;51.232;9.420;2024-01-15T04:46:44;-0.30;99.90
20700;DHT22;10511;51.232;9.420;2024-01-15T04:49:11;-0.30;99.90
20700;DHT22;10511;51.232;9.420;2024-01-15T04:51:38;-0.30;99.90
20700;DHT22;10511;51.232;9.420;2024-01-15T04:54:05;-0.40;99.90
20700;DHT22;10511;51.232;9.420;2024-01-15T04:56:33;-0.50;99.90
20700;DHT22;10511;51.232;9.420;2024-01-15T04:59:01;-0.50;99.90
20700;DHT22;10511;51.232;9.420;2024-01-15T05:01:31;-0.50;99.90
20700;DHT22;10511;51.232;9.420;2024-01-15T05:03:58;-0.50;99.90
20700;DHT22;10511;51.232;9.420;2024-01-15T05:06:25;-0.50;99.90
20700;DHT22;10511;51.232;9.420;2024-01-15T05:08:51;-0.50;99.90
20700;DHT22;10511;51.232;9.420;2024-01-15T05:11:18;-0.50;99.90
20700;DHT22;10511;51.232;9.420;2024-01-15T05:13:45;-0.50;99.90
20700;DHT22;10511;51.232;9.420;2024-01-15T05:16:13;-0.50;99.90
20700;DHT22;10511;51.232;9.420;2024-01-15T05:18:40;-0.50;99.90
20700;DHT22;10511;51.232;9.420;2024-01-15T05:21:08;-0.50;99.90
20700;DHT22;10511;51.232;9.420;2024-01-15T05:23:35;-0.50;99.90
20700;DHT22;10511;51.232;9.420;2024-01-15T05:26:02;-0.50;99.90
20700;DHT22;10511;51.232;9.420;2024-01-15T05:28:29;-0.40;99.90
20700;DHT22;10511;51.232;9.420;2024-01-15T05:30:56;-0.40;99.90
20700;DHT22;10511;51.232;9.420;2024-01-15T05:33:25;-0.50;99.90
20700;DHT22;10511;51.232;9.420;2024-01-15T05:35:53;-0.50;99.90
20700;DHT22;10511;51.232;9.420;2024-01-15T05:38:20;-0.50;99.90
20700;DHT22;10511;51.232;9.420;2024-01-15T05:40:47;-0.50;99.90
20700;DHT22;10511;51.232;9.420;2024-01-15T05:43:14;-0.50;99.90
20700;DHT22;10511;51.232;9.420;2024-01-15T05:45:43;-0.50;99.90
20700;DHT22;10511;51.232;9.420;2024-01-15T05:48:10;-0.50;99.90
20700;DHT22;10511;51.232;9.420;2024-01-15T05:50:39;-0.50;99.90
20700;DHT22;10511;51.232;9.420;2024-01-15T05:53:06;-0.50;99.90
20700;DHT22;10511;51.232;9.420;2024-01-15T05:55:32;-0.50;99.90
20700;DHT22;10511;51.232;9.420;2024-01-15T05:57:59;-0.50;99.90
20700;DHT22;10511;51.232;9.420;2024-01-15T06:00:26;-0.50;99.90
20700;DHT22;10511;51.232;9.420;2024-01-15T06:02:53;-0.40;99.90
20700;DHT22;10511;51.232;9.420;2024-01-15T06:05:20;-0.50;99.90
20700;DHT22;10511;51.232;9.420;2024-01-15T06:07:48;-0.50;99.90
20700;DHT22;10511;51.232;9.420;2024-01-15T06:10:15;-0.50;99.90
20700;DHT22;10511;51.232;9.420;2024-01-15T06:12:43;-0.40;99.90
20700;DHT22;10511;51.232;9.420;2024-01-15T06:15:10;-0.40;99.90
20700;DHT22;10511;51.232;9.420;2024-01-15T06:17:38;-0.40;99.90
20700;DHT22;10511;51.232;9.420;2024-01-15T06:20:06;-0.40;99.90
20700;DHT22;10511;51.232;9.420;2024-01-15T06:22:33;-0.30;99.90
20700;DHT22;10511;51.232;9.420;2024-01-15T06:25:02;-0.30;99.90
20700;DHT22;10511;51.232;9.420;2024-01-15T06:27:29;-0.30;99.90
20700;DHT22;10511;51.232;9.420;2024-01-15T06:29:55;-0.20;99.90
20700;DHT22;10511;51.232;9.420;2024-01-15T06:32:22;-0.20;99.90
20700;DHT22;10511;51.232;9.420;2024-01-15T06:34:49;-0.10;99.90
20700;DHT22;10511;51.232;9.420;2024-01-15T06:37:16;-0.10;99.90
20700;DHT22;10511;51.232;9.420;2024-01-15T06:39:44;-0.10;99.90
20700;DHT22;10511;51.232;9.420;2024-01-15T06:42:12;0.00;99.90
20700;DHT22;10511;51.232;9.420;2024-01-15T06:44:39;0.00;99.90
20700;DHT22;10511;51.232;9.420;2024-01-15T06:47:06;0.00;99.90
20700;DHT22;10511;51.232;9.420;2024-01-15T06:49:33;0.00;99.90
20700;DHT22;10511;51.232;9.420;2024-01-15T06:51:59;0.00;99.90
20700;DHT22;10511;51.232;9.420;2024-01-15T06:54:26;0.00;99.90
20700;DHT22;10511;51.232;9.420;2024-01-15T06:56:53;0.00;99.90
20700;DHT22;10511;51.232;9.420;2024-01-15T06:59:22;0.00;99.90
20700;DHT22;10511;51.232;9.420;2024-01-15T07:01:49;0.00;99.90
20700;DHT22;10511;51.232;9.420;2024-01-15T07:04:16;0.00;99.90
20700;DHT22;10511;51.232;9.420;2024-01-15T07:06:43;0.00;99.90
20700;DHT22;10511;51.232;9.420;2024-01-15T07:09:10;0.00;99.90
20700;DHT22;10511;51.232;9.420;2024-01-15T07:11:37;0.10;99.90
20700;DHT22;10511;51.232;9.420;2024-01-15T07:14:04;0.10;99.90
20700;DHT22;10511;51.232;9.420;2024-01-15T07:16:32;0.10;99.90
20700;DHT22;10511;51.232;9.420;2024-01-15T07:18:59;0.20;99.90
20700;DHT22;10511;51.232;9.420;2024-01-15T07:21:25;0.20;99.90
20700;DHT22;10511;51.232;9.420;2024-01-15T07:23:52;0.20;99.90
20700;DHT22;10511;51.232;9.420;2024-01-15T07:26:19;0.10;99.90
20700;DHT22;10511;51.232;9.420;2024-01-15T07:28:46;0.10;99.90
20700;DHT22;10511;51.232;9.420;2024-01-15T07:31:15;0.10;99.90
20700;DHT22;10511;51.232;9.420;2024-01-15T07:33:43;0.00;99.90
20700;DHT22;10511;51.232;9.420;2024-01-15T07:36:10;-0.10;99.90
20700;DHT22;10511;51.232;9.420;2024-01-15T07:38:37;-0.10;99.90
20700;DHT22;10511;51.232;9.420;2024-01-15T07:41:04;-0.10;99.90
20700;DHT22;10511;51.232;9.420;2024-01-15T07:43:31;-0.10;99.90
20700;DHT22;10511;51.232;9.420;2024-01-15T07:45:57;-0.10;99.90
20700;DHT22;10511;51.232;9.420;2024-01-15T07:48:24;-0.10;99.90
20700;DHT22;10511;51.232;9.420;2024-01-15T07:50:52;-0.10;99.90
20700;DHT22;10511;51.232;9.420;2024-01-15T07:53:19;-0.10;99.90
20700;DHT22;10511;51.232;9.420;2024-01-15T07:55:46;-0.10;99.90
20700;DHT22;10511;51.232;9.420;2024-01-15T07:58:13;0.00;99.90
20700;DHT22;10511;51.232;9.420;2024-01-15T08:00:40;0.00;99.90
20700;DHT22;10511;51.232;9.420;2024-01-15T08:03:06;0.10;99.90
20700;DHT22;10511;51.232;9.420;2024-01-15T08:05:33;0.10;99.90
20700;DHT22;10511;51.232;9.420;2024-01-15T08:08:01;0.10;99.90
20700;DHT22;10511;51.232;9.420;2024-01-15T08:10:28;0.10;99.90
20700;DHT22;10511;51.232;9.420;2024-01-15T08:12:55;0.10;99.90
20700;DHT22;10511;51.232;9.420;2024-01-15T08:15:22;0.10;99.90
20700;DHT22;10511;51.232;9.420;2024-01-15T08:17:49;0.10;99.90
20700;DHT22;10511;51.232;9.420;2024-01-15T08:20:16;0.10;99.90
20700;DHT22;10511;51.232;9.420;2024-01-15T08:22:43;0.10;99.90
20700;DHT22;10511;51.232;9.420;2024-01-15T08:25:11;0.10;99.90
20700;DHT22;10511;51.232;9.420;2024-01-15T08:27:38;0.10;99.90
20700;DHT22;10511;51.232;9.420;2024-01-15T08:30:06;0.20;99.90
20700;DHT22;10511;51.232;9.420;2024-01-15T08:32:33;0.20;99.90
20700;DHT22;10511;51.232;9.420;2024-01-15T08:35:02;0.20;99.90
20700;DHT22;10511;51.232;9.420;2024-01-15T08:37:29;0.30;99.90
20700;DHT22;10511;51.232;9.420;2024-01-15T08:39:56;0.30;99.90
20700;DHT22;10511;51.232;9.420;2024-01-15T08:42:24;0.40;99.90
20700;DHT22;10511;51.232;9.420;2024-01-15T08:44:51;0.30;99.90
20700;DHT22;10511;51.232;9.420;2024-01-15T08:47:18;0.30;99.90
20700;DHT22;10511;51.232;9.420;2024-01-15T08:49:45;0.30;99.90
20700;DHT22;10511;51.232;9.420;2024-01-15T08:52:12;0.40;99.90
20700;DHT22;10511;51.232;9.420;2024-01-15T08:54:39;0.30;99.90
20700;DHT22;10511;51.232;9.420;2024-01-15T08:57:06;0.30;99.90
20700;DHT22;10511;51.232;9.420;2024-01-15T08:59:34;0.30;99.90
20700;DHT22;10511;51.232;9.420;2024-01-15T09:02:01;0.30;99.90
20700;DHT22;10511;51.232;9.420;2024-01-15T09:04:27;0.30;99.90
20700;DHT22;10511;51.232;9.420;2024-01-15T09:06:54;0.30;99.90
20700;DHT22;10511;51.232;9.420;2024-01-15T09:09:21;0.30;99.90
20700;DHT22;10511;51.232;9.420;2024-01-15T09:11:48;0.30;99.90
20700;DHT22;10511;51.232;9.420;2024-01-15T09:14:15;0.30;99.90
20700;DHT22;10511;51.232;9.420;2024-01-15T09:16:43;0.40;99.90
20700;DHT22;10511;51.232;9.420;2024-01-15T09:19:10;0.40;99.90
20700;DHT22;10511;51.232;9.420;2024-01-15T09:21:38;0.40;99.90
20700;DHT22;10511;51.232;9.420;2024-01-15T09:24:05;0.50;99.90
20700;DHT22;10511;51.232;9.420;2024-01-15T09:26:32;0.60;99.90
20700;DHT22;10511;51.232;9.420;2024-01-15T09:28:59;0.60;99.90
20700;DHT22;10511;51.232;9.420;2024-01-15T09:31:26;0.60;99.90
20700;DHT22;10511;51.232;9.420;2024-01-15T09:33:55;0.60;99.90
20700;DHT22;10511;51.232;9.420;2024-01-15T09:36:24;0.60;99.90
20700;DHT22;10511;51.232;9.420;2024-01-15T09:38:51;0.70;99.90
20700;DHT22;10511;51.232;9.420;2024-01-15T09:41:18;0.60;99.90
20700;DHT22;10511;51.232;9.420;2024-01-15T09:43:45;0.60;99.90
20700;DHT22;10511;51.232;9.420;2024-01-15T09:46:12;0.60;99.90
20700;DHT22;10511;51.232;9.420;2024-01-15T09:48:39;0.60;99.90
20700;DHT22;10511;51.232;9.420;2024-01-15T09:51:08;0.50;99.90
20700;DHT22;10511;51.232;9.420;2024-01-15T09:53:36;0.50;99.90
20700;DHT22;10511;51.232;9.420;2024-01-15T09:56:04;0.50;99.90
20700;DHT22;10511;51.232;9.420;2024-01-15T09:58:32;0.50;99.90
20700;DHT22;10511;51.232;9.420;2024-01-15T10:01:00;0.50;99.90
20700;DHT22;10511;51.232;9.420;2024-01-15T10:03:28;0.50;99.90
20700;DHT22;10511;51.232;9.420;2024-01-15T10:05:56;0.50;99.90
20700;DHT22;10511;51.232;9.420;2024-01-15T10:08:27;0.50;99.90
20700;DHT22;10511;51.232;9.420;2024-01-15T10:10:53;0.60;99.90
20700;DHT22;10511;51.232;9.420;2024-01-15T10:13:21;0.60;99.90
20700;DHT22;10511;51.232;9.420;2024-01-15T10:15:48;0.70;99.90
20700;DHT22;10511;51.232;9.420;2024-01-15T10:18:16;0.70;99.90
20700;DHT22;10511;51.232;9.420;2024-01-15T10:20:42;0.70;99.90
20700;DHT22;10511;51.232;9.420;2024-01-15T10:23:09;0.70;99.90
20700;DHT22;10511;51.232;9.420;2024-01-15T10:25:37;0.60;99.90
20700;DHT22;10511;51.232;9.420;2024-01-15T10:28:06;0.60;99.90
20700;DHT22;10511;51.232;9.420;2024-01-15T10:30:33;0.60;99.90
20700;DHT22;10511;51.232;9.420;2024-01-15T10:33:00;0.60;99.90
20700;DHT22;10511;51.232;9.420;2024-01-15T10:35:29;0.60;99.90
20700;DHT22;10511;51.232;9.420;2024-01-15T10:37:56;0.50;99.90
20700;DHT22;10511;51.232;9.420;2024-01-15T10:40:23;0.50;99.90
20700;DHT22;10511;51.232;9.420;2024-01-15T10:42:52;0.50;99.90
20700;DHT22;10511;51.232;9.420;2024-01-15T10:45:19;0.60;99.90
20700;DHT22;10511;51.232;9.420;2024-01-15T10:47:46;0.60;99.90
20700;DHT22;10511;51.232;9.420;2024-01-15T10:50:14;0.70;99.90
20700;DHT22;10511;51.232;9.420;2024-01-15T10:52:41;0.60;99.90
20700;DHT22;10511;51.232;9.420;2024-01-15T10:55:09;0.60;99.90
20700;DHT22;10511;51.232;9.420;2024-01-15T10:57:37;0.60;99.90
20700;DHT22;10511;51.232;9.420;2024-01-15T11:00:06;0.50;99.90
20700;DHT22;10511;51.232;9.420;2024-01-15T11:02:36;0.60;99.90
20700;DHT22;10511;51.232;9.420;2024-01-15T11:05:03;0.60;99.90
20700;DHT22;10511;51.232;9.420;2024-01-15T11:07:31;0.60;99.90
20700;DHT22;10511;51.232;9.420;2024-01-15T11:09:57;0.60;99.90
20700;DHT22;10511;51.232;9.420;2024-01-15T11:12:25;0.60;99.90
20700;DHT22;10511;51.232;9.420;2024-01-15T11:14:51;0.50;99.90
20700;DHT22;10511;51.232;9.420;2024-01-15T11:17:21;0.50;99.90
20700;DHT22;10511;51.232;9.420;2024-01-15T11:19:49;0.50;99.90
20700;DHT22;10511;51.232;9.420;2024-01-15T11:22:48;0.50;99.90
20700;DHT22;10511;51.232;9.420;2024-01-15T11:25:17;0.50;99.90
20700;DHT22;10511;51.232;9.420;2024-01-15T11:27:46;0.50;99.90
20700;DHT22;10511;51.232;9.420;2024-01-15T11:30:15;0.50;99.90
20700;DHT22;10511;51.232;9.420;2024-01-15T11:32:43;0.50;99.90
20700;DHT22;10511;51.232;9.420;2024-01-15T11:35:13;0.50;99.90
20700;DHT22;10511;51.232;9.420;2024-01-15T11:37:59;0.50;99.90
20700;DHT22;10511;51.232;9.420;2024-01-15T11:40:39;0.50;99.90
20700;DHT22;10511;51.232;9.420;2024-01-15T11:43:08;0.50;99.90
20700;DHT22;10511;51.232;9.420;2024-01-15T11:45:36;0.50;99.90
20700;DHT22;10511;51.232;9.420;2024-01-15T11:48:12;0.50;99.90
20700;DHT22;10511;51.232;9.420;2024-01-15T11:50:41;0.50;99.90
20700;DHT22;10511;51.232;9.420;2024-01-15T11:53:21;0.50;99.90
20700;DHT22;10511;51.232;9.420;2024-01-15T11:55:51;0.50;99.90
20700;DHT22;10511;51.232;9.420;2024-01-15T11:58:18;0.50;99.90
20700;DHT22;10511;51.232;9.420;2024-01-15T12:00:47;0.50;99.90
20700;DHT22;10511;51.232;9.420;2024-01-15T12:03:16;0.60;99.90
20700;DHT22;10511;51.232;9.420;2024-01-15T12:05:43;0.70;99.90
20700;DHT22;10511;51.232;9.420;2024-01-15T12:08:10;0.70;99.90
20700;DHT22;10511;51.232;9.420;2024-01-15T12:10:37;0.70;99.90
20700;DHT22;10511;51.232;9.420;2024-01-15T12:13:10;0.70;99.90
20700;DHT22;10511;51.232;9.420;2024-01-15T12:15:55;0.70;99.90
20700;DHT22;10511;51.232;9.420;2024-01-15T12:18:23;0.70;99.90
20700;DHT22;10511;51.232;9.420;2024-01-15T12:20:54;0.80;99.90
20700;DHT22;10511;51.232;9.420;2024-01-15T12:23:21;0.80;99.90
20700;DHT22;10511;51.232;9.420;2024-01-15T12:25:48;0.80;99.90
20700;DHT22;10511;51.232;9.420;2024-01-15T12:28:15;0.80;99.90
20700;DHT22;10511;51.232;9.420;2024-01-15T12:30:42;0.90;99.90
20700;DHT22;10511;51.232;9.420;2024-01-15T12:33:10;0.90;99.90
20700;DHT22;10511;51.232;9.420;2024-01-15T12:35:38;0.90;99.90
20700;DHT22;10511;51.232;9.420;2024-01-15T12:38:05;1.00;99.90
20700;DHT22;10511;51.232;9.420;2024-01-15T12:40:32;1.00;99.90
20700;DHT22;10511;51.232;9.420;2024-01-15T12:43:00;1.10;99.90
20700;DHT22;10511;51.232;9.420;2024-01-15T12:45:27;1.10;99.90
20700;DHT22;10511;51.232;9.420;2024-01-15T12:47:53;1.10;99.90
20700;DHT22;10511;51.232;9.420;2024-01-15T12:50:24;1.20;99.90
20700;DHT22;10511;51.232;9.420;2024-01-15T12:52:52;1.20;99.90
20700;DHT22;10511;51.232;9.420;2024-01-15T12:55:19;1.10;99.90
20700;DHT22;10511;51.232;9.420;2024-01-15T12:57:46;1.10;99.90
20700;DHT22;10511;51.232;9.420;2024-01-15T13:00:14;1.20;99.90
20700;DHT22;10511;51.232;9.420;2024-01-15T13:02:41;1.10;99.90
20700;DHT22;10511;51.232;9.420;2024-01-15T13:05:08;1.10;99.90
20700;DHT22;10511;51.232;9.420;2024-01-15T13:07:36;1.10;99.90
20700;DHT22;10511;51.232;9.420;2024-01-15T13:10:05;1.20;99.90
20700;DHT22;10511;51.232;9.420;2024-01-15T13:12:33;1.20;99.90
20700;DHT22;10511;51.232;9.420;2024-01-15T13:15:00;1.30;99.90
20700;DHT22;10511;51.232;9.420;2024-01-15T13:17:28;1.30;99.90
20700;DHT22;10511;51.232;9.420;2024-01-15T13:19:55;1.30;99.90
20700;DHT22;10511;51.232;9.420;2024-01-15T13:22:22;1.30;99.90
20700;DHT22;10511;51.232;9.420;2024-01-15T13:24:55;1.30;99.90
20700;DHT22;10511;51.232;9.420;2024-01-15T13:27:23;1.40;99.90
20700;DHT22;10511;51.232;9.420;2024-01-15T13:29:50;1.40;99.90
20700;DHT22;10511;51.232;9.420;2024-01-15T13:32:22;1.50;99.90
20700;DHT22;10511;51.232;9.420;2024-01-15T13:34:51;1.50;99.90
20700;DHT22;10511;51.232;9.420;2024-01-15T13:37:17;1.50;99.90
20700;DHT22;10511;51.232;9.420;2024-01-15T13:39:44;1.50;99.90
20700;DHT22;10511;51.232;9.420;2024-01-15T13:42:11;1.50;99.90
20700;DHT22;10511;51.232;9.420;2024-01-15T13:44:39;1.50;99.90
20700;DHT22;10511;51.232;9.420;2024-01-15T13:47:06;1.50;99.90
20700;DHT22;10511;51.232;9.420;2024-01-15T13:49:34;1.50;99.90
20700;DHT22;10511;51.232;9.420;2024-01-15T13:52:01;1.50;99.90
20700;DHT22;10511;51.232;9.420;2024-01-15T13:54:29;1.50;99.90
20700;DHT22;10511;51.232;9.420;2024-01-15T13:56:56;1.50;99.90
20700;DHT22;10511;51.232;9.420;2024-01-15T13:59:24;1.50;99.90
20700;DHT22;10511;51.232;9.420;2024-01-15T14:01:53;1.50;99.90
20700;DHT22;10511;51.232;9.420;2024-01-15T14:04:20;1.50;99.90
20700;DHT22;10511;51.232;9.420;2024-01-15T14:06:47;1.50;99.90
20700;DHT22;10511;51.232;9.420;2024-01-15T14:09:14;1.50;99.90
20700;DHT22;10511;51.232;9.420;2024-01-15T14:11:41;1.50;99.90
20700;DHT22;10511;51.232;9.420;2024-01-15T14:14:08;1.40;99.90
20700;DHT22;10511;51.232;9.420;2024-01-15T14:16:35;1.40;99.90
20700;DHT22;10511;51.232;9.420;2024-01-15T14:19:03;1.40;99.90
20700;DHT22;10511;51.232;9.420;2024-01-15T14:21:31;1.40;99.90
20700;DHT22;10511;51.232;9.420;2024-01-15T14:23:58;1.40;99.90
20700;DHT22;10511;51.232;9.420;2024-01-15T14:26:25;1.30;99.90
20700;DHT22;10511;51.232;9.420;2024-01-15T14:28:53;1.30;99.90
20700;DHT22;10511;51.232;9.420;2024-01-15T14:31:20;1.30;99.90
20700;DHT22;10511;51.232;9.420;2024-01-15T14:33:48;1.30;99.90
20700;DHT22;10511;51.232;9.420;2024-01-15T14:36:25;1.30;99.90
20700;DHT22;10511;51.232;9.420;2024-01-15T14:38:52;1.20;99.90
20700;DHT22;10511;51.232;9.420;2024-01-15T14:41:19;1.20;99.90
20700;DHT22;10511;51.232;9.420;2024-01-15T14:43:46;1.20;99.90
20700;DHT22;10511;51.232;9.420;2024-01-15T14:46:13;1.20;99.90
20700;DHT22;10511;51.232;9.420;2024-01-15T14:48:40;1.20;99.90
20700;DHT22;10511;51.232;9.420;2024-01-15T14:51:07;1.20;99.90
20700;DHT22;10511;51.232;9.420;2024-01-15T14:53:35;1.20;99.90
20700;DHT22;10511;51.232;9.420;2024-01-15T14:56:02;1.30;99.90
20700;DHT22;10511;51.232;9.420;2024-01-15T14:58:29;1.20;99.90
20700;DHT22;10511;51.232;9.420;2024-01-15T15:00:58;1.20;99.90
20700;DHT22;10511;51.232;9.420;2024-01-15T15:03:25;1.20;99.90
20700;DHT22;10511;51.232;9.420;2024-01-15T15:05:52;1.20;99.90
20700;DHT22;10511;51.232;9.420;2024-01-15T15:08:18;1.20;99.90
20700;DHT22;10511;51.232;9.420;2024-01-15T15:10:47;1.20;99.90
20700;DHT22;10511;51.232;9.420;2024-01-15T15:13:14;1.20;99.90
20700;DHT22;10511;51.232;9.420;2024-01-15T15:15:41;1.20;99.90
20700;DHT22;10511;51.232;9.420;2024-01-15T15:18:07;1.10;99.90
20700;DHT22;10511;51.232;9.420;2024-01-15T15:20:34;1.10;99.90
20700;DHT22;10511;51.232;9.420;2024-01-15T15:23:01;1.10;99.90
20700;DHT22;10511;51.232;9.420;2024-01-15T15:25:30;1.00;99.90
20700;DHT22;10511;51.232;9.420;2024-01-15T15:27:59;1.00;99.90
20700;DHT22;10511;51.232;9.420;2024-01-15T15:30:25;0.90;99.90
20700;DHT22;10511;51.232;9.420;2024-01-15T15:32:52;0.90;99.90
20700;DHT22;10511;51.232;9.420;2024-01-15T15:35:19;0.80;99.90
20700;DHT22;10511;51.232;9.420;2024-01-15T15:37:46;0.70;99.90
20700;DHT22;10511;51.232;9.420;2024-01-15T15:40:13;0.60;99.90
20700;DHT22;10511;51.232;9.420;2024-01-15T15:42:39;0.60;99.90